Chicago, Illinois
Traffic Map
Current Weather Conditions
Chicago, Illinois
Overcast
Overcast
74°
Feels Like: 74°
Wind Chill: 74° Ceiling: 20000
Heat Index: 74° Visibility: 10mi
Dew Point: 69° Wind: 5mph
Humidity: 85% Direction: 190° (S)
Pressure: 29.93in Gusts: 0mph
Raw Report DataKMDW 160353Z 19004KT 10SM FEW015 SCT060 OVC200 23/21 A2993 RMK AO2 SLP125 T02330206
Traffic Incident Summary
Active as of:
Severity:
Category:
InformationThere was an issue retrieving the traffic information for this location. Please try a different location or try again shortly.
Advertisements